Moody AFB, Georgia
Current Conditions -  °F | °C
As of 9:58 AM on Wednesday 26 Nov 2014 (Local Time) from KVAD Reporting Station
Scattered Clouds Scattered Clouds  
Wind Chill: 51°   Ceiling: Unl
Heat Index: 51°   Visibility: 10mi
Dew Point: 47°   Wind: 12mph
Humidity: 84%   Direction: 280°W
Pressure: 30.13"   Gusts: NA
Location:  30.9753°N, 83.2042°W
Report Text: KVAD 261458Z AUTO 28010KT 10SM FEW010 SCT015 11/08 A3013 RMK AO2 SLP206 60000 T01080082 52024 $
Loading
Personal Weather Stations






























Interactive Weather Map New forecast layout! Learn more

10-Day Weather Forecast

Advertisements
Track Severe Weather on mobile